sensor_id;sensor_type;location;lat;lon;timestamp;temperature;humidity
55785;DHT22;41709;52.536;5.688;2023-08-06T00:02:24;15.00;95.80
55785;DHT22;41709;52.536;5.688;2023-08-06T00:04:50;15.00;95.70
55785;DHT22;41709;52.536;5.688;2023-08-06T00:07:15;15.00;95.70
55785;DHT22;41709;52.536;5.688;2023-08-06T00:09:41;15.00;95.70
55785;DHT22;41709;52.536;5.688;2023-08-06T00:12:07;15.10;95.60
55785;DHT22;41709;52.536;5.688;2023-08-06T00:14:32;15.10;95.60
55785;DHT22;41709;52.536;5.688;2023-08-06T00:16:58;15.10;95.60
55785;DHT22;41709;52.536;5.688;2023-08-06T00:19:24;15.00;95.60
55785;DHT22;41709;52.536;5.688;2023-08-06T00:21:49;15.00;95.70
55785;DHT22;41709;52.536;5.688;2023-08-06T00:24:15;15.00;95.70
55785;DHT22;41709;52.536;5.688;2023-08-06T00:26:41;15.00;95.70
55785;DHT22;41709;52.536;5.688;2023-08-06T00:29:06;15.10;95.60
55785;DHT22;41709;52.536;5.688;2023-08-06T00:31:32;15.00;95.60
55785;DHT22;41709;52.536;5.688;2023-08-06T00:33:57;15.00;95.70
55785;DHT22;41709;52.536;5.688;2023-08-06T00:36:23;15.00;95.70
55785;DHT22;41709;52.536;5.688;2023-08-06T00:38:48;15.00;95.70
55785;DHT22;41709;52.536;5.688;2023-08-06T00:41:14;15.00;95.70
55785;DHT22;41709;52.536;5.688;2023-08-06T00:43:40;15.00;95.60
55785;DHT22;41709;52.536;5.688;2023-08-06T00:46:06;15.00;95.60
55785;DHT22;41709;52.536;5.688;2023-08-06T00:48:32;15.00;95.60
55785;DHT22;41709;52.536;5.688;2023-08-06T00:50:58;15.00;95.60
55785;DHT22;41709;52.536;5.688;2023-08-06T00:53:24;14.90;95.70
55785;DHT22;41709;52.536;5.688;2023-08-06T00:55:50;14.90;95.70
55785;DHT22;41709;52.536;5.688;2023-08-06T00:58:16;14.80;95.80
55785;DHT22;41709;52.536;5.688;2023-08-06T01:00:42;14.80;95.90
55785;DHT22;41709;52.536;5.688;2023-08-06T01:03:08;14.80;95.80
55785;DHT22;41709;52.536;5.688;2023-08-06T01:05:34;14.80;95.90
55785;DHT22;41709;52.536;5.688;2023-08-06T01:13:45;14.80;95.90
55785;DHT22;41709;52.536;5.688;2023-08-06T01:16:15;14.80;96.00
55785;DHT22;41709;52.536;5.688;2023-08-06T01:18:41;14.80;96.00
55785;DHT22;41709;52.536;5.688;2023-08-06T01:21:08;14.80;96.00
55785;DHT22;41709;52.536;5.688;2023-08-06T01:23:34;14.80;96.00
55785;DHT22;41709;52.536;5.688;2023-08-06T01:26:30;14.80;96.00
55785;DHT22;41709;52.536;5.688;2023-08-06T01:29:25;14.80;96.00
55785;DHT22;41709;52.536;5.688;2023-08-06T01:31:55;14.80;96.00
55785;DHT22;41709;52.536;5.688;2023-08-06T01:34:23;14.70;95.90
55785;DHT22;41709;52.536;5.688;2023-08-06T01:36:53;14.70;96.00
55785;DHT22;41709;52.536;5.688;2023-08-06T01:39:19;14.70;96.00
55785;DHT22;41709;52.536;5.688;2023-08-06T01:41:48;14.70;96.20
55785;DHT22;41709;52.536;5.688;2023-08-06T01:44:14;14.70;96.10
55785;DHT22;41709;52.536;5.688;2023-08-06T01:46:39;14.70;96.10
55785;DHT22;41709;52.536;5.688;2023-08-06T01:49:05;14.60;96.10
55785;DHT22;41709;52.536;5.688;2023-08-06T01:51:30;14.70;96.20
55785;DHT22;41709;52.536;5.688;2023-08-06T01:53:56;14.70;96.10
55785;DHT22;41709;52.536;5.688;2023-08-06T01:56:21;14.60;96.10
55785;DHT22;41709;52.536;5.688;2023-08-06T01:58:47;14.70;96.20
55785;DHT22;41709;52.536;5.688;2023-08-06T02:01:13;14.70;96.20
55785;DHT22;41709;52.536;5.688;2023-08-06T02:03:38;14.60;96.20
55785;DHT22;41709;52.536;5.688;2023-08-06T02:06:04;14.70;96.20
55785;DHT22;41709;52.536;5.688;2023-08-06T02:08:30;14.60;96.20
55785;DHT22;41709;52.536;5.688;2023-08-06T02:10:55;14.70;96.20
55785;DHT22;41709;52.536;5.688;2023-08-06T02:13:21;14.60;96.20
55785;DHT22;41709;52.536;5.688;2023-08-06T02:15:46;14.60;96.30
55785;DHT22;41709;52.536;5.688;2023-08-06T02:18:13;14.60;96.30
55785;DHT22;41709;52.536;5.688;2023-08-06T02:20:40;14.70;96.20
55785;DHT22;41709;52.536;5.688;2023-08-06T02:23:06;14.70;96.20
55785;DHT22;41709;52.536;5.688;2023-08-06T02:25:31;14.70;96.20
55785;DHT22;41709;52.536;5.688;2023-08-06T02:27:57;14.70;96.10
55785;DHT22;41709;52.536;5.688;2023-08-06T02:30:22;14.70;96.10
55785;DHT22;41709;52.536;5.688;2023-08-06T02:32:48;14.70;96.20
55785;DHT22;41709;52.536;5.688;2023-08-06T02:35:14;14.70;96.20
55785;DHT22;41709;52.536;5.688;2023-08-06T02:37:39;14.60;96.10
55785;DHT22;41709;52.536;5.688;2023-08-06T02:40:05;14.60;96.20
55785;DHT22;41709;52.536;5.688;2023-08-06T02:42:31;14.60;96.20
55785;DHT22;41709;52.536;5.688;2023-08-06T02:44:56;14.80;96.20
55785;DHT22;41709;52.536;5.688;2023-08-06T02:47:22;14.70;96.10
55785;DHT22;41709;52.536;5.688;2023-08-06T02:49:51;14.70;96.40
55785;DHT22;41709;52.536;5.688;2023-08-06T02:52:16;14.70;96.00
55785;DHT22;41709;52.536;5.688;2023-08-06T02:54:42;14.70;96.30
55785;DHT22;41709;52.536;5.688;2023-08-06T02:57:08;14.70;96.00
55785;DHT22;41709;52.536;5.688;2023-08-06T02:59:34;14.70;95.90
55785;DHT22;41709;52.536;5.688;2023-08-06T03:01:59;14.70;96.00
55785;DHT22;41709;52.536;5.688;2023-08-06T03:04:25;14.70;96.00
55785;DHT22;41709;52.536;5.688;2023-08-06T03:06:51;14.70;95.90
55785;DHT22;41709;52.536;5.688;2023-08-06T03:09:17;14.80;96.00
55785;DHT22;41709;52.536;5.688;2023-08-06T03:11:43;14.70;95.90
55785;DHT22;41709;52.536;5.688;2023-08-06T03:14:09;14.70;95.90
55785;DHT22;41709;52.536;5.688;2023-08-06T03:16:34;14.70;96.00
55785;DHT22;41709;52.536;5.688;2023-08-06T03:19:00;14.70;96.00
55785;DHT22;41709;52.536;5.688;2023-08-06T03:21:26;14.70;96.00
55785;DHT22;41709;52.536;5.688;2023-08-06T03:23:51;14.70;96.30
55785;DHT22;41709;52.536;5.688;2023-08-06T03:26:17;14.70;96.00
55785;DHT22;41709;52.536;5.688;2023-08-06T03:28:42;14.70;96.00
55785;DHT22;41709;52.536;5.688;2023-08-06T03:31:08;14.70;96.00
55785;DHT22;41709;52.536;5.688;2023-08-06T03:33:34;14.70;96.00
55785;DHT22;41709;52.536;5.688;2023-08-06T03:36:00;14.80;95.90
55785;DHT22;41709;52.536;5.688;2023-08-06T03:38:25;14.80;95.90
55785;DHT22;41709;52.536;5.688;2023-08-06T03:40:51;14.80;95.90
55785;DHT22;41709;52.536;5.688;2023-08-06T03:43:17;14.80;95.90
55785;DHT22;41709;52.536;5.688;2023-08-06T03:45:42;14.80;95.90
55785;DHT22;41709;52.536;5.688;2023-08-06T03:48:08;14.80;95.90
55785;DHT22;41709;52.536;5.688;2023-08-06T03:50:34;14.80;95.80
55785;DHT22;41709;52.536;5.688;2023-08-06T03:53:00;14.80;95.80
55785;DHT22;41709;52.536;5.688;2023-08-06T03:55:26;14.80;95.80
55785;DHT22;41709;52.536;5.688;2023-08-06T03:57:51;14.80;95.80
55785;DHT22;41709;52.536;5.688;2023-08-06T04:00:17;14.80;95.80
55785;DHT22;41709;52.536;5.688;2023-08-06T04:02:43;14.80;95.90
55785;DHT22;41709;52.536;5.688;2023-08-06T04:05:08;14.80;95.90
55785;DHT22;41709;52.536;5.688;2023-08-06T04:07:34;14.80;96.00
55785;DHT22;41709;52.536;5.688;2023-08-06T04:10:02;14.80;96.00
55785;DHT22;41709;52.536;5.688;2023-08-06T04:12:28;14.80;96.00
55785;DHT22;41709;52.536;5.688;2023-08-06T04:14:55;14.70;96.00
55785;DHT22;41709;52.536;5.688;2023-08-06T04:17:21;14.80;96.10
55785;DHT22;41709;52.536;5.688;2023-08-06T04:19:54;14.80;96.10
55785;DHT22;41709;52.536;5.688;2023-08-06T04:22:21;14.70;96.00
55785;DHT22;41709;52.536;5.688;2023-08-06T04:24:47;14.70;96.10
55785;DHT22;41709;52.536;5.688;2023-08-06T04:27:13;14.70;96.40
55785;DHT22;41709;52.536;5.688;2023-08-06T04:29:39;14.60;96.20
55785;DHT22;41709;52.536;5.688;2023-08-06T04:32:07;14.50;96.30
55785;DHT22;41709;52.536;5.688;2023-08-06T04:34:32;14.50;96.40
55785;DHT22;41709;52.536;5.688;2023-08-06T04:36:59;14.50;96.40
55785;DHT22;41709;52.536;5.688;2023-08-06T04:39:24;14.50;96.40
55785;DHT22;41709;52.536;5.688;2023-08-06T04:41:50;14.50;96.40
55785;DHT22;41709;52.536;5.688;2023-08-06T04:44:15;14.40;96.50
55785;DHT22;41709;52.536;5.688;2023-08-06T04:46:41;14.40;96.50
55785;DHT22;41709;52.536;5.688;2023-08-06T04:49:06;14.40;96.50
55785;DHT22;41709;52.536;5.688;2023-08-06T04:51:32;14.40;96.60
55785;DHT22;41709;52.536;5.688;2023-08-06T04:53:58;14.40;96.60
55785;DHT22;41709;52.536;5.688;2023-08-06T04:56:24;14.30;96.60
55785;DHT22;41709;52.536;5.688;2023-08-06T04:58:50;14.30;96.60
55785;DHT22;41709;52.536;5.688;2023-08-06T05:01:15;14.30;96.70
55785;DHT22;41709;52.536;5.688;2023-08-06T05:03:41;14.30;96.70
55785;DHT22;41709;52.536;5.688;2023-08-06T05:06:07;14.40;96.60
55785;DHT22;41709;52.536;5.688;2023-08-06T05:08:32;14.40;96.60
55785;DHT22;41709;52.536;5.688;2023-08-06T05:10:58;14.40;96.60
55785;DHT22;41709;52.536;5.688;2023-08-06T05:13:23;14.40;96.50
55785;DHT22;41709;52.536;5.688;2023-08-06T05:15:50;14.40;96.40
55785;DHT22;41709;52.536;5.688;2023-08-06T05:18:16;14.40;96.40
55785;DHT22;41709;52.536;5.688;2023-08-06T05:20:42;14.40;96.80
55785;DHT22;41709;52.536;5.688;2023-08-06T05:23:08;14.40;96.50
55785;DHT22;41709;52.536;5.688;2023-08-06T05:25:38;14.40;96.50
55785;DHT22;41709;52.536;5.688;2023-08-06T05:28:04;14.40;96.60
55785;DHT22;41709;52.536;5.688;2023-08-06T05:30:30;14.40;96.60
55785;DHT22;41709;52.536;5.688;2023-08-06T05:32:55;14.40;96.60
55785;DHT22;41709;52.536;5.688;2023-08-06T05:35:22;14.40;96.60
55785;DHT22;41709;52.536;5.688;2023-08-06T05:37:48;14.30;96.70
55785;DHT22;41709;52.536;5.688;2023-08-06T05:40:14;14.30;96.60
55785;DHT22;41709;52.536;5.688;2023-08-06T05:42:40;14.40;96.80
55785;DHT22;41709;52.536;5.688;2023-08-06T05:45:06;14.30;96.80
55785;DHT22;41709;52.536;5.688;2023-08-06T05:47:32;14.20;96.90
55785;DHT22;41709;52.536;5.688;2023-08-06T05:49:58;14.20;97.00
55785;DHT22;41709;52.536;5.688;2023-08-06T05:52:24;14.30;97.00
55785;DHT22;41709;52.536;5.688;2023-08-06T05:54:49;14.30;96.90
55785;DHT22;41709;52.536;5.688;2023-08-06T05:57:15;14.30;97.00
55785;DHT22;41709;52.536;5.688;2023-08-06T05:59:41;14.40;97.00
55785;DHT22;41709;52.536;5.688;2023-08-06T06:02:07;14.40;97.00
55785;DHT22;41709;52.536;5.688;2023-08-06T06:04:32;14.40;96.90
55785;DHT22;41709;52.536;5.688;2023-08-06T06:06:58;14.40;96.80
55785;DHT22;41709;52.536;5.688;2023-08-06T06:09:23;14.50;96.90
55785;DHT22;41709;52.536;5.688;2023-08-06T06:11:49;14.50;96.80
55785;DHT22;41709;52.536;5.688;2023-08-06T06:14:18;14.50;96.80
55785;DHT22;41709;52.536;5.688;2023-08-06T06:16:44;14.70;96.80
55785;DHT22;41709;52.536;5.688;2023-08-06T06:19:11;14.60;96.60
55785;DHT22;41709;52.536;5.688;2023-08-06T06:21:37;14.70;96.70
55785;DHT22;41709;52.536;5.688;2023-08-06T06:24:04;14.80;96.60
55785;DHT22;41709;52.536;5.688;2023-08-06T06:26:30;14.80;96.50
55785;DHT22;41709;52.536;5.688;2023-08-06T06:28:56;14.90;96.60
55785;DHT22;41709;52.536;5.688;2023-08-06T06:31:22;14.90;96.50
55785;DHT22;41709;52.536;5.688;2023-08-06T06:33:47;15.00;96.50
55785;DHT22;41709;52.536;5.688;2023-08-06T06:36:13;15.10;96.40
55785;DHT22;41709;52.536;5.688;2023-08-06T06:38:38;15.20;96.20
55785;DHT22;41709;52.536;5.688;2023-08-06T06:41:04;15.20;96.10
55785;DHT22;41709;52.536;5.688;2023-08-06T06:43:30;15.20;95.90
55785;DHT22;41709;52.536;5.688;2023-08-06T06:45:56;15.30;95.80
55785;DHT22;41709;52.536;5.688;2023-08-06T06:48:28;15.30;95.70
55785;DHT22;41709;52.536;5.688;2023-08-06T06:50:54;15.40;95.90
55785;DHT22;41709;52.536;5.688;2023-08-06T06:53:19;15.50;95.70
55785;DHT22;41709;52.536;5.688;2023-08-06T06:55:45;15.50;95.60
55785;DHT22;41709;52.536;5.688;2023-08-06T06:58:15;15.50;95.80
55785;DHT22;41709;52.536;5.688;2023-08-06T07:00:41;15.50;95.30
55785;DHT22;41709;52.536;5.688;2023-08-06T07:03:07;15.50;95.30
55785;DHT22;41709;52.536;5.688;2023-08-06T07:05:32;15.50;95.20
55785;DHT22;41709;52.536;5.688;2023-08-06T07:07:58;15.60;95.20
55785;DHT22;41709;52.536;5.688;2023-08-06T07:10:23;15.60;95.50
55785;DHT22;41709;52.536;5.688;2023-08-06T07:12:49;15.60;95.10
55785;DHT22;41709;52.536;5.688;2023-08-06T07:15:15;15.70;95.10
55785;DHT22;41709;52.536;5.688;2023-08-06T07:17:43;15.70;95.00
55785;DHT22;41709;52.536;5.688;2023-08-06T07:20:08;15.70;94.70
55785;DHT22;41709;52.536;5.688;2023-08-06T07:22:34;15.80;94.80
55785;DHT22;41709;52.536;5.688;2023-08-06T07:25:00;15.80;94.80
55785;DHT22;41709;52.536;5.688;2023-08-06T07:27:25;15.80;94.70
55785;DHT22;41709;52.536;5.688;2023-08-06T07:29:51;15.80;94.70
55785;DHT22;41709;52.536;5.688;2023-08-06T07:32:16;15.80;94.70
55785;DHT22;41709;52.536;5.688;2023-08-06T07:34:42;15.80;94.70
55785;DHT22;41709;52.536;5.688;2023-08-06T07:37:08;15.90;94.70
55785;DHT22;41709;52.536;5.688;2023-08-06T07:39:33;15.90;94.70
55785;DHT22;41709;52.536;5.688;2023-08-06T07:41:59;15.90;94.80
55785;DHT22;41709;52.536;5.688;2023-08-06T07:44:24;16.00;94.80
55785;DHT22;41709;52.536;5.688;2023-08-06T07:46:50;16.00;94.70
55785;DHT22;41709;52.536;5.688;2023-08-06T07:49:16;16.00;94.60
55785;DHT22;41709;52.536;5.688;2023-08-06T07:51:41;16.00;94.40
55785;DHT22;41709;52.536;5.688;2023-08-06T07:54:07;16.00;94.10
55785;DHT22;41709;52.536;5.688;2023-08-06T07:56:33;16.00;94.00
55785;DHT22;41709;52.536;5.688;2023-08-06T07:58:58;16.10;94.10
55785;DHT22;41709;52.536;5.688;2023-08-06T08:01:24;16.10;94.20
55785;DHT22;41709;52.536;5.688;2023-08-06T08:03:49;16.10;94.20
55785;DHT22;41709;52.536;5.688;2023-08-06T08:06:15;16.20;94.30
55785;DHT22;41709;52.536;5.688;2023-08-06T08:08:41;16.20;94.20
55785;DHT22;41709;52.536;5.688;2023-08-06T08:11:06;16.20;94.20
55785;DHT22;41709;52.536;5.688;2023-08-06T08:13:32;16.30;93.80
55785;DHT22;41709;52.536;5.688;2023-08-06T08:15:58;16.30;94.10
55785;DHT22;41709;52.536;5.688;2023-08-06T08:18:24;16.30;93.70
55785;DHT22;41709;52.536;5.688;2023-08-06T08:20:50;16.30;93.90
55785;DHT22;41709;52.536;5.688;2023-08-06T08:23:16;16.30;93.80
55785;DHT22;41709;52.536;5.688;2023-08-06T08:25:41;16.30;93.80
55785;DHT22;41709;52.536;5.688;2023-08-06T08:28:07;16.30;93.90
55785;DHT22;41709;52.536;5.688;2023-08-06T08:30:32;16.30;93.90
55785;DHT22;41709;52.536;5.688;2023-08-06T08:32:58;16.30;94.00
55785;DHT22;41709;52.536;5.688;2023-08-06T08:35:24;16.50;94.00
55785;DHT22;41709;52.536;5.688;2023-08-06T08:37:49;16.30;93.70
55785;DHT22;41709;52.536;5.688;2023-08-06T08:40:15;16.30;93.60
55785;DHT22;41709;52.536;5.688;2023-08-06T08:42:42;16.30;93.60
55785;DHT22;41709;52.536;5.688;2023-08-06T08:45:13;16.40;93.70
55785;DHT22;41709;52.536;5.688;2023-08-06T08:47:40;16.40;94.00
55785;DHT22;41709;52.536;5.688;2023-08-06T08:50:08;16.40;94.10
55785;DHT22;41709;52.536;5.688;2023-08-06T08:52:36;16.40;93.80
55785;DHT22;41709;52.536;5.688;2023-08-06T08:55:03;16.40;93.70
55785;DHT22;41709;52.536;5.688;2023-08-06T08:57:29;16.40;93.80
55785;DHT22;41709;52.536;5.688;2023-08-06T08:59:55;16.40;93.80
55785;DHT22;41709;52.536;5.688;2023-08-06T09:02:21;16.40;93.70
55785;DHT22;41709;52.536;5.688;2023-08-06T09:04:48;16.50;93.60
55785;DHT22;41709;52.536;5.688;2023-08-06T09:07:18;16.50;93.50
55785;DHT22;41709;52.536;5.688;2023-08-06T09:09:47;16.50;93.40
55785;DHT22;41709;52.536;5.688;2023-08-06T09:12:17;16.50;93.40
55785;DHT22;41709;52.536;5.688;2023-08-06T09:14:43;16.60;93.60
55785;DHT22;41709;52.536;5.688;2023-08-06T09:17:09;16.60;93.50
55785;DHT22;41709;52.536;5.688;2023-08-06T09:19:36;16.60;93.40
55785;DHT22;41709;52.536;5.688;2023-08-06T09:22:02;16.60;93.50
55785;DHT22;41709;52.536;5.688;2023-08-06T09:24:28;16.60;93.40
55785;DHT22;41709;52.536;5.688;2023-08-06T09:26:54;16.60;93.30
55785;DHT22;41709;52.536;5.688;2023-08-06T09:29:20;16.70;93.30
55785;DHT22;41709;52.536;5.688;2023-08-06T09:31:50;16.70;93.00
55785;DHT22;41709;52.536;5.688;2023-08-06T09:34:20;16.70;93.00
55785;DHT22;41709;52.536;5.688;2023-08-06T09:36:56;16.70;93.20
55785;DHT22;41709;52.536;5.688;2023-08-06T09:39:29;16.80;93.30
55785;DHT22;41709;52.536;5.688;2023-08-06T09:41:59;16.80;93.30
55785;DHT22;41709;52.536;5.688;2023-08-06T09:44:27;16.70;93.40
55785;DHT22;41709;52.536;5.688;2023-08-06T09:46:59;16.80;93.50
55785;DHT22;41709;52.536;5.688;2023-08-06T09:49:27;16.80;93.40
55785;DHT22;41709;52.536;5.688;2023-08-06T09:51:53;16.80;93.40
55785;DHT22;41709;52.536;5.688;2023-08-06T09:54:22;16.90;93.00
55785;DHT22;41709;52.536;5.688;2023-08-06T09:56:48;16.90;93.00
55785;DHT22;41709;52.536;5.688;2023-08-06T09:59:14;17.00;93.20
55785;DHT22;41709;52.536;5.688;2023-08-06T10:01:41;17.00;93.00
55785;DHT22;41709;52.536;5.688;2023-08-06T10:04:07;17.00;92.70
55785;DHT22;41709;52.536;5.688;2023-08-06T10:06:34;17.00;92.80
55785;DHT22;41709;52.536;5.688;2023-08-06T10:09:02;17.10;92.80
55785;DHT22;41709;52.536;5.688;2023-08-06T10:11:28;17.10;92.70
55785;DHT22;41709;52.536;5.688;2023-08-06T10:14:08;17.20;92.60
55785;DHT22;41709;52.536;5.688;2023-08-06T10:16:36;17.20;92.70
55785;DHT22;41709;52.536;5.688;2023-08-06T10:19:08;17.20;92.70
55785;DHT22;41709;52.536;5.688;2023-08-06T10:21:34;17.20;92.50
55785;DHT22;41709;52.536;5.688;2023-08-06T10:24:00;17.20;92.50
55785;DHT22;41709;52.536;5.688;2023-08-06T10:26:28;17.20;92.60
55785;DHT22;41709;52.536;5.688;2023-08-06T10:28:54;17.30;92.60
55785;DHT22;41709;52.536;5.688;2023-08-06T10:31:20;17.30;92.30
55785;DHT22;41709;52.536;5.688;2023-08-06T10:33:46;17.20;92.40
55785;DHT22;41709;52.536;5.688;2023-08-06T10:36:13;17.30;92.70
55785;DHT22;41709;52.536;5.688;2023-08-06T10:38:47;17.30;92.40
55785;DHT22;41709;52.536;5.688;2023-08-06T10:41:32;17.30;92.30
55785;DHT22;41709;52.536;5.688;2023-08-06T10:44:08;17.40;92.00
55785;DHT22;41709;52.536;5.688;2023-08-06T10:46:34;17.40;92.30
55785;DHT22;41709;52.536;5.688;2023-08-06T10:49:01;17.40;92.40
55785;DHT22;41709;52.536;5.688;2023-08-06T10:51:27;17.40;92.50
55785;DHT22;41709;52.536;5.688;2023-08-06T10:53:53;17.50;92.40
55785;DHT22;41709;52.536;5.688;2023-08-06T10:56:20;17.50;91.80
55785;DHT22;41709;52.536;5.688;2023-08-06T10:58:50;17.50;92.10
55785;DHT22;41709;52.536;5.688;2023-08-06T11:01:16;17.50;92.20
55785;DHT22;41709;52.536;5.688;2023-08-06T11:03:43;17.50;92.10
55785;DHT22;41709;52.536;5.688;2023-08-06T11:06:09;17.60;92.10
55785;DHT22;41709;52.536;5.688;2023-08-06T11:08:36;17.30;92.30
55785;DHT22;41709;52.536;5.688;2023-08-06T11:11:13;17.30;92.50
55785;DHT22;41709;52.536;5.688;2023-08-06T11:13:40;17.20;92.50
55785;DHT22;41709;52.536;5.688;2023-08-06T11:16:06;17.30;92.20
55785;DHT22;41709;52.536;5.688;2023-08-06T11:18:32;17.10;92.20
55785;DHT22;41709;52.536;5.688;2023-08-06T11:20:59;17.10;92.20
55785;DHT22;41709;52.536;5.688;2023-08-06T11:23:27;17.10;92.50
55785;DHT22;41709;52.536;5.688;2023-08-06T11:25:54;17.10;92.40
55785;DHT22;41709;52.536;5.688;2023-08-06T11:28:20;17.20;92.40
55785;DHT22;41709;52.536;5.688;2023-08-06T11:30:49;17.30;92.40
55785;DHT22;41709;52.536;5.688;2023-08-06T11:33:29;17.20;92.60
55785;DHT22;41709;52.536;5.688;2023-08-06T11:35:56;17.20;92.90
55785;DHT22;41709;52.536;5.688;2023-08-06T11:38:25;17.30;93.10
55785;DHT22;41709;52.536;5.688;2023-08-06T11:40:51;17.30;93.20
55785;DHT22;41709;52.536;5.688;2023-08-06T11:43:19;17.30;93.40
55785;DHT22;41709;52.536;5.688;2023-08-06T11:45:44;17.30;92.90
55785;DHT22;41709;52.536;5.688;2023-08-06T11:48:10;17.30;92.90
55785;DHT22;41709;52.536;5.688;2023-08-06T11:50:37;17.20;92.80
55785;DHT22;41709;52.536;5.688;2023-08-06T11:53:06;17.10;93.00
55785;DHT22;41709;52.536;5.688;2023-08-06T11:55:32;17.10;93.00
55785;DHT22;41709;52.536;5.688;2023-08-06T11:58:02;17.20;93.20
55785;DHT22;41709;52.536;5.688;2023-08-06T12:00:28;17.20;92.90
55785;DHT22;41709;52.536;5.688;2023-08-06T12:02:54;17.00;93.00
55785;DHT22;41709;52.536;5.688;2023-08-06T12:05:31;17.00;93.20
55785;DHT22;41709;52.536;5.688;2023-08-06T12:08:00;17.00;93.20
55785;DHT22;41709;52.536;5.688;2023-08-06T12:10:27;16.90;92.90
55785;DHT22;41709;52.536;5.688;2023-08-06T12:12:53;16.70;93.20
55785;DHT22;41709;52.536;5.688;2023-08-06T12:15:19;16.60;93.30
55785;DHT22;41709;52.536;5.688;2023-08-06T12:17:45;16.60;93.30
55785;DHT22;41709;52.536;5.688;2023-08-06T12:20:11;16.70;93.30
55785;DHT22;41709;52.536;5.688;2023-08-06T12:22:37;16.80;93.10
55785;DHT22;41709;52.536;5.688;2023-08-06T12:27:37;16.90;93.20
55785;DHT22;41709;52.536;5.688;2023-08-06T12:30:04;17.00;93.00
55785;DHT22;41709;52.536;5.688;2023-08-06T12:32:30;17.00;93.00
55785;DHT22;41709;52.536;5.688;2023-08-06T12:34:55;17.00;93.00
55785;DHT22;41709;52.536;5.688;2023-08-06T12:37:21;16.70;92.90
55785;DHT22;41709;52.536;5.688;2023-08-06T12:39:47;16.80;93.20
55785;DHT22;41709;52.536;5.688;2023-08-06T12:42:12;16.80;93.10
55785;DHT22;41709;52.536;5.688;2023-08-06T12:44:38;16.80;92.70
55785;DHT22;41709;52.536;5.688;2023-08-06T12:47:04;16.80;92.90
55785;DHT22;41709;52.536;5.688;2023-08-06T12:49:29;16.90;92.30
55785;DHT22;41709;52.536;5.688;2023-08-06T12:51:57;16.70;92.20
55785;DHT22;41709;52.536;5.688;2023-08-06T12:54:25;16.70;92.40
55785;DHT22;41709;52.536;5.688;2023-08-06T12:56:51;16.60;91.90
55785;DHT22;41709;52.536;5.688;2023-08-06T12:59:17;16.60;91.60
55785;DHT22;41709;52.536;5.688;2023-08-06T13:01:44;16.50;91.90
55785;DHT22;41709;52.536;5.688;2023-08-06T13:04:10;16.50;92.30
55785;DHT22;41709;52.536;5.688;2023-08-06T13:06:36;16.60;92.20
55785;DHT22;41709;52.536;5.688;2023-08-06T13:09:05;16.70;92.10
55785;DHT22;41709;52.536;5.688;2023-08-06T13:11:32;16.70;92.50
55785;DHT22;41709;52.536;5.688;2023-08-06T13:14:04;16.80;92.30
55785;DHT22;41709;52.536;5.688;2023-08-06T13:16:30;16.70;92.50
55785;DHT22;41709;52.536;5.688;2023-08-06T13:18:56;16.80;92.70
55785;DHT22;41709;52.536;5.688;2023-08-06T13:21:22;16.90;92.70
55785;DHT22;41709;52.536;5.688;2023-08-06T13:23:47;16.90;92.50
55785;DHT22;41709;52.536;5.688;2023-08-06T13:26:13;16.90;92.90
55785;DHT22;41709;52.536;5.688;2023-08-06T13:28:39;16.90;92.50
55785;DHT22;41709;52.536;5.688;2023-08-06T13:31:04;17.10;92.70
55785;DHT22;41709;52.536;5.688;2023-08-06T13:33:30;17.00;92.40
55785;DHT22;41709;52.536;5.688;2023-08-06T13:35:55;16.90;92.60
55785;DHT22;41709;52.536;5.688;2023-08-06T13:38:21;17.10;92.30
55785;DHT22;41709;52.536;5.688;2023-08-06T13:40:47;17.10;92.40
55785;DHT22;41709;52.536;5.688;2023-08-06T13:43:13;17.10;91.90
55785;DHT22;41709;52.536;5.688;2023-08-06T13:45:41;17.20;91.70
55785;DHT22;41709;52.536;5.688;2023-08-06T13:48:06;17.10;91.80
55785;DHT22;41709;52.536;5.688;2023-08-06T13:50:32;17.10;91.60
55785;DHT22;41709;52.536;5.688;2023-08-06T13:52:57;17.10;91.10
55785;DHT22;41709;52.536;5.688;2023-08-06T13:55:23;17.00;91.30
55785;DHT22;41709;52.536;5.688;2023-08-06T13:57:48;17.00;91.40
55785;DHT22;41709;52.536;5.688;2023-08-06T14:00:14;16.90;91.50
55785;DHT22;41709;52.536;5.688;2023-08-06T14:02:41;16.90;91.00
55785;DHT22;41709;52.536;5.688;2023-08-06T14:05:09;16.80;91.20
55785;DHT22;41709;52.536;5.688;2023-08-06T14:07:34;16.80;91.10
55785;DHT22;41709;52.536;5.688;2023-08-06T14:10:00;16.80;91.10
55785;DHT22;41709;52.536;5.688;2023-08-06T14:12:26;16.80;91.30
55785;DHT22;41709;52.536;5.688;2023-08-06T14:14:51;16.90;90.90
55785;DHT22;41709;52.536;5.688;2023-08-06T14:17:17;16.90;90.90
55785;DHT22;41709;52.536;5.688;2023-08-06T14:19:42;16.80;90.70
55785;DHT22;41709;52.536;5.688;2023-08-06T14:22:08;16.90;91.00
55785;DHT22;41709;52.536;5.688;2023-08-06T14:24:33;16.90;91.00
55785;DHT22;41709;52.536;5.688;2023-08-06T14:26:59;17.10;91.20
55785;DHT22;41709;52.536;5.688;2023-08-06T14:29:24;17.20;90.60
55785;DHT22;41709;52.536;5.688;2023-08-06T14:31:51;17.20;90.60
55785;DHT22;41709;52.536;5.688;2023-08-06T14:34:16;17.30;90.80
55785;DHT22;41709;52.536;5.688;2023-08-06T14:36:42;17.30;90.20
55785;DHT22;41709;52.536;5.688;2023-08-06T14:39:08;17.20;90.10
55785;DHT22;41709;52.536;5.688;2023-08-06T14:41:33;17.10;90.50
55785;DHT22;41709;52.536;5.688;2023-08-06T14:43:59;17.10;90.20
55785;DHT22;41709;52.536;5.688;2023-08-06T14:46:25;17.10;90.50
55785;DHT22;41709;52.536;5.688;2023-08-06T14:48:50;17.10;90.90
55785;DHT22;41709;52.536;5.688;2023-08-06T14:51:16;17.10;90.90
55785;DHT22;41709;52.536;5.688;2023-08-06T14:53:44;17.10;91.10
55785;DHT22;41709;52.536;5.688;2023-08-06T14:56:10;17.10;91.50
55785;DHT22;41709;52.536;5.688;2023-08-06T14:58:35;17.20;91.60
55785;DHT22;41709;52.536;5.688;2023-08-06T15:01:01;17.30;90.70
55785;DHT22;41709;52.536;5.688;2023-08-06T15:03:27;17.40;91.00
55785;DHT22;41709;52.536;5.688;2023-08-06T15:05:53;17.40;90.80
55785;DHT22;41709;52.536;5.688;2023-08-06T15:08:19;17.40;90.40
55785;DHT22;41709;52.536;5.688;2023-08-06T15:10:50;17.30;89.10
55785;DHT22;41709;52.536;5.688;2023-08-06T15:13:17;17.20;90.30
55785;DHT22;41709;52.536;5.688;2023-08-06T15:15:42;17.20;90.50
55785;DHT22;41709;52.536;5.688;2023-08-06T15:18:10;17.30;91.00
55785;DHT22;41709;52.536;5.688;2023-08-06T15:20:36;17.30;91.00
55785;DHT22;41709;52.536;5.688;2023-08-06T15:23:02;17.20;90.90
55785;DHT22;41709;52.536;5.688;2023-08-06T15:25:28;17.00;90.10
55785;DHT22;41709;52.536;5.688;2023-08-06T15:27:53;16.80;90.50
55785;DHT22;41709;52.536;5.688;2023-08-06T15:30:19;16.80;91.10
55785;DHT22;41709;52.536;5.688;2023-08-06T15:32:46;16.60;90.80
55785;DHT22;41709;52.536;5.688;2023-08-06T15:35:14;16.50;90.90